找回密码
 立即注册

手机号码,快捷登录

手机号码,快捷登录

收藏本版 (104)|订阅

摇滚音乐 今日: 0|主题: 19653|排名: 7 

版主: qige1231
作者 回复/查看 最后发表
[专辑] Krieg - Isolation / Transmission (2014) [EP] [Vinyl Rip 16Bit 44kHz] [FLAC] 10086 2021-5-23 0206 10086 2021-5-23 13:38
[专辑] Vallenfyre - Splinters (2014) [Vinyl Rip 16Bit 48kHz] [FLAC] lz189 2021-5-23 0180 lz189 2021-5-23 13:38
[专辑] Crowbar - Symmetry in Black (2014) [Vinyl Rip 16Bit 48kHz] [FLAC] 全球采集 2021-5-23 0196 全球采集 2021-5-23 13:38
[专辑] Grave Upheaval - Untitled (2013) [Vinyl Rip 16Bit 44kHz] [FLAC] kayda 2021-5-23 0258 kayda 2021-5-23 13:38
[专辑] Nekromantheon - Divinity Of Death (2010) [Vinyl Rip 16Bit 44kHz] [FLAC] 如果有神 2021-5-23 0186 如果有神 2021-5-23 13:38
[专辑] Destruction / Tankard - Destruction / Tankard [Limited Edition] (2014) [7-EP] [Vinyl Rip 16Bit 44kHz] [FLAC] 全球采集 2021-5-23 0241 全球采集 2021-5-23 13:38
[专辑] Nekromantheon / Audiopain - Nekromantheon / Audiopain (2009) [Split] [Vinyl Rip 16Bit 44kHz] [FLAC] 10086 2021-5-23 0190 10086 2021-5-23 13:38
[专辑] Archgoat - Angelcunt (Tales of Desecration) [Limited Edition] (1993) [7-EP] [Vinyl Rip 16Bit 44kHz] [FLAC] 10086 2021-5-23 0197 10086 2021-5-23 13:38
[专辑] Nekromantheon - We're Rotting (2011) [Vinyl Rip 16Bit 44kHz] [FLAC] 全球搬运 2021-5-23 0219 全球搬运 2021-5-23 13:38
[专辑] Moonspell - Under The Moonspell 12-LP [Limited Edition] (1994) [EP] [Vinyl Rip 16Bit 44kHz] [WAV] 10086 2021-5-23 0224 10086 2021-5-23 13:38
[专辑] Symbel - The Wet English Forest (2004) [Compilation] [Vinyl Rip 16Bit 24kHz] [FLAC] lz189 2021-5-23 0303 lz189 2021-5-23 13:38
[专辑] Angantyr - Endeløs / Nordens stolte krigere (2005) [Anthology] [Vinyl Rip 16Bit 44kHz] [FLAC] 10086 2021-5-23 0201 10086 2021-5-23 13:38
[专辑] Feretrum - From Far Beyond (1992) (Re-2013) [Vinyl Rip 16Bit 44kHz] [FLAC] lz189 2021-5-23 0229 lz189 2021-5-23 13:38
[专辑] HammerFall - Bushido (2014) [7-EP] [Vinyl Rip 16Bit 44kHz] [FLAC] lz189 2021-5-23 0239 lz189 2021-5-23 13:38
[专辑] Szron & Witchcraft - Fekete és Hideg/Onward Into The Void (2014) [Split] [Vinyl Rip 16Bit 44kHz] [FLAC] 韬199435 2021-5-23 0172 韬199435 2021-5-23 13:38
[专辑] Sabbat & Bestial Hordes - Sabbat & Bestial Hordes [Split] (2014) [7-EP] [Vinyl Rip 16Bit 44kHz] [FLAC] 全球搬运 2021-5-23 0217 全球搬运 2021-5-23 13:38
[专辑] Orcultus - Orcultus [Limited Edition] (2014) [7-EP] [Vinyl Rip 16Bit 44kHz] [FLAC] 全球采集 2021-5-23 0208 全球采集 2021-5-23 13:38
[专辑] The Rods - Let Them Eat Metal (1984) [Vinyl Rip 16Bit 44kHz] [FLAC] 如果有神 2021-5-23 0241 如果有神 2021-5-23 13:38
[专辑] The Rods - In The Raw (1983) [Vinyl Rip 16Bit 44kHz] [FLAC] elmisy 2021-5-23 0188 elmisy 2021-5-23 13:38
[专辑] Anatomia / Sex Messiah - Anatomia / Sex Messiah (2014) [7-EP] [Vinyl Rip 16Bit 44kHz] [FLAC] elmisy 2021-5-23 0241 elmisy 2021-5-23 13:38
[专辑] Warfare - Pure Filth (1984) [Vinyl Rip 16Bit 44kHz] [FLAC] kayda 2021-5-23 0272 kayda 2021-5-23 13:38
[专辑] Accept - Blood Of The Nations (2010) [Vinyl Rip 16Bit 44kHz] [FLAC] lz189 2021-5-23 0188 lz189 2021-5-23 13:38
[专辑] Tukaaria - Raw to the Rapine [Remastered] (2013) [Vinyl Rip 16Bit 44kHz] [FLAC] lz189 2021-5-23 0257 lz189 2021-5-23 13:38
[专辑] Satanic Warmaster - Strength and Honour [Limited Edition] (2014) [Vinyl Rip 16Bit 44kHz] [FLAC] fqw1001 2021-5-23 0182 fqw1001 2021-5-23 13:38
[专辑] Warfare - Metal Anarchy (1985) [Vinyl Rip 16Bit 44kHz] [FLAC] kayda 2021-5-23 0231 kayda 2021-5-23 13:38
[专辑] Warfare - Mayhem,Fuckin' Mayhem (1986) [Vinyl Rip 16Bit 44kHz] [WAV] elmisy 2021-5-23 0220 elmisy 2021-5-23 13:38
[专辑] Ash Pool - For Which He Plies The Lash (2010) [Vinyl Rip 16Bit 44kHz] [FLAC] 韬199435 2021-5-23 0280 韬199435 2021-5-23 13:38
[专辑] Electric Wizard - Legalise Drugs and Murder (2012) [Single] [Vinyl Rip 16Bit 44kHz] [FLAC] elmisy 2021-5-23 0193 elmisy 2021-5-23 13:38
[专辑] Ash Pool - Saturns Slave [Limited Edition] (2009) [7-EP] [Vinyl Rip 16Bit 44kHz] [FLAC] tikus75 2021-5-23 0208 tikus75 2021-5-23 13:38
[专辑] Natron - Virus Cult (2014) [7-EP] [Vinyl Rip 16Bit 44kHz] [WAV] 韬199435 2021-5-23 0248 韬199435 2021-5-23 13:38
[专辑] Blackdeath - Jesus Wept [Limited Edition] (2011) [12-EP] [Vinyl Rip 16Bit 44kHz] [FLAC] 全球采集 2021-5-23 0258 全球采集 2021-5-23 13:38
[专辑] Militaris-tic - Curse of Weapons (2013) [Vinyl Rip 16Bit 44kHz] [FLAC] fqw1001 2021-5-23 0206 fqw1001 2021-5-23 13:38
[专辑] Shitfucker - Suck Cocks in Hell (2013) [Vinyl Rip 16Bit 44kHz] [FLAC] tikus75 2021-5-23 0194 tikus75 2021-5-23 13:38
[专辑] Grst - Plague Seed (2014) [12-EP] [Vinyl Rip 16Bit 44kHz] [FLAC] lz189 2021-5-23 0189 lz189 2021-5-23 13:38
[专辑] Mammoth Grinder / Hatred Surge - (2011) [Split] [Vinyl Rip 16Bit 44kHz] [FLAC] fqw1001 2021-5-23 0240 fqw1001 2021-5-23 13:38
[专辑] Funeral Mist - Salvation (Trisagion) [Limited Edition] (2013) [Vinyl Rip 16Bit 44kHz] [FLAC] 韬199435 2021-5-23 0255 韬199435 2021-5-23 13:38
[专辑] Ataraxy - Revelations of the Ethereal (2012) [Vinyl Rip 16Bit 44kHz] [FLAC] 全球采集 2021-5-23 0189 全球采集 2021-5-23 13:38
[专辑] Funeral Mist - Devilry/Havoc [Trisagion] [Limited Edition] (2013) [Vinyl Rip 16Bit 44kHz] [FLAC] 韬199435 2021-5-23 0206 韬199435 2021-5-23 13:38
[专辑] Nicole 12 - Black Line (2011) [Vinyl Rip 16Bit 44kHz] [FLAC] 全球搬运 2021-5-23 0199 全球搬运 2021-5-23 13:38
[专辑] Antediluvian & Temple Nightside - Cogitating Vacuous [Limited Edition] (2012) [7-EP] [Vinyl Rip 16Bit 44kHz] [FLAC] fqw1001 2021-5-23 0194 fqw1001 2021-5-23 13:38
[专辑] Limp Bizkit - Chocolate Starfish And The Hot Dog Flavored Water (2000) [Vinyl Rip 16Bit 44kHz] [FLAC] fqw1001 2021-5-23 0227 fqw1001 2021-5-23 13:38
[专辑] Rhinocervs - RH-14 [Limited Edition] (2014) [7-EP] [Vinyl Rip 16Bit 44kHz] [FLAC] 全球采集 2021-5-23 0208 全球采集 2021-5-23 13:38
[专辑] Rhinocervs - RH-13 [Limited Edition] (2014) [Vinyl Rip 16Bit 44kHz] [FLAC] 如果有神 2021-5-23 0200 如果有神 2021-5-23 13:38
[专辑] Doombringer - Sevenfold Pestilence (2012) [7-EP] [Vinyl Rip 16Bit 44kHz] [FLAC] 如果有神 2021-5-23 0221 如果有神 2021-5-23 13:38
[专辑] Procession - The Cult Of Disease [EP] [Vinyl Rip] (2009) [FLAC] 10086 2021-5-23 0269 10086 2021-5-23 13:38
[专辑] Procession - Death And Judgement [EP] [Vinyl Rip] (2012) [FLAC] 如果有神 2021-5-23 0210 如果有神 2021-5-23 13:38
[专辑] Nargaroth - Rasluka Part I [Limited Edition] (2004) [10-EP] [Vinyl Rip 16Bit 44kHz] [WAV] 韬199435 2021-5-23 0282 韬199435 2021-5-23 13:38
[专辑] Nargaroth - Spectral Visions Of Mental Warfare [Limited Edition] (2011) [Vinyl Rip 16Bit 44kHz] [WAV] 全球搬运 2021-5-23 0262 全球搬运 2021-5-23 13:38
[专辑] Wedard - Wo Die Ewigkeit Die Zeit Berührt [Limited Edition] (2010) [Vinyl Rip 16Bit 44kHz] [WAV] tikus75 2021-5-23 0188 tikus75 2021-5-23 13:38
[专辑] Drowning the Light - A Pact with Madness [Limited Edition] (2009) [Vinyl Rip 16Bit 44kHz] [WAV] 全球采集 2021-5-23 0270 全球采集 2021-5-23 13:38
下一页 »

快速发帖

还可输入 180 个字符
您需要登录后才可以发帖 登录 | 立即注册

本版积分规则

关闭

站长推荐上一条 /1 下一条

Archiver|手机版|小黑屋|捌零音乐论坛 ( 反馈邮箱:admin@ptcd.net )|网站地图

GMT+8, 2026-5-8 11:16 , Processed in 0.151726 second(s), 21 queries .

Powered by Discuz! X3.5

© 2001-2026 Discuz! Team.

返回顶部 返回版块